Time;durP1;ratioP1;P1;durP2;ratioP2;P2;SDS_P1;SDS_P2;PMS_P1;PMS_P2;Temp;Humidity;BMP_temperature;BMP_pressure;BME280_temperature;BME280_humidity;BME280_pressure;Samples;Min_cycle;Max_cycle;Signal;HPM_P1;HPM_P2
2021/12/27 00:01:23;;;;;;;34.80;18.55;;;-3.80;88.40;;;;;;4960940;28;20051;-66
2021/12/27 00:03:51;;;;;;;42.70;19.50;;;-3.90;88.30;;;;;;4960369;28;20062;-64
2021/12/27 00:06:18;;;;;;;34.17;17.00;;;-3.90;88.20;;;;;;4970916;28;20101;-64
2021/12/27 00:08:43;;;;;;;42.00;18.70;;;-3.90;88.30;;;;;;4969698;28;20034;-65
2021/12/27 00:11:11;;;;;;;42.25;19.02;;;-3.90;88.30;;;;;;4971401;28;20150;-65
2021/12/27 00:13:36;;;;;;;41.63;18.55;;;-3.90;88.30;;;;;;4959482;28;20530;-65
2021/12/27 00:16:02;;;;;;;47.85;22.63;;;-3.90;88.30;;;;;;4962421;28;20122;-64
2021/12/27 00:18:28;;;;;;;40.92;19.75;;;-3.90;88.30;;;;;;4963518;28;20082;-65
2021/12/27 00:20:54;;;;;;;41.88;20.45;;;-3.90;88.50;;;;;;4967661;28;20042;-65
2021/12/27 00:23:20;;;;;;;44.10;20.60;;;-3.90;88.40;;;;;;4968828;28;20042;-64
2021/12/27 00:25:45;;;;;;;46.50;19.90;;;-3.90;88.20;;;;;;4971529;28;20054;-65
2021/12/27 00:28:11;;;;;;;43.22;19.90;;;-3.90;88.20;;;;;;4965911;28;20036;-65
2021/12/27 00:30:38;;;;;;;41.08;20.90;;;-3.90;88.00;;;;;;4961933;28;20034;-65
2021/12/27 00:33:04;;;;;;;41.53;19.45;;;-3.90;88.20;;;;;;4970968;28;20382;-65
2021/12/27 00:35:32;;;;;;;47.35;20.00;;;-3.90;88.20;;;;;;4969538;28;20042;-65
2021/12/27 00:37:58;;;;;;;43.65;20.40;;;-3.90;88.20;;;;;;4970526;28;20363;-65
2021/12/27 00:40:24;;;;;;;41.38;20.42;;;-3.90;88.10;;;;;;4971369;28;20027;-65
2021/12/27 00:42:50;;;;;;;44.28;21.60;;;-3.90;88.20;;;;;;4970811;28;20442;-65
2021/12/27 00:45:17;;;;;;;42.55;18.95;;;-3.90;88.20;;;;;;4960777;28;20471;-65
2021/12/27 00:47:42;;;;;;;46.00;19.85;;;-3.90;88.10;;;;;;4962489;28;20045;-64
2021/12/27 00:50:09;;;;;;;46.45;20.45;;;-3.90;88.10;;;;;;4974792;28;20034;-65
2021/12/27 00:52:35;;;;;;;47.10;21.90;;;-3.90;88.20;;;;;;4972781;28;20119;-63
2021/12/27 00:55:03;;;;;;;38.45;20.70;;;-3.90;88.20;;;;;;4975451;28;20048;-65
2021/12/27 00:57:29;;;;;;;45.50;21.58;;;-3.90;88.30;;;;;;4973126;28;20042;-64
2021/12/27 00:59:54;;;;;;;47.95;20.77;;;-3.90;88.20;;;;;;4974740;28;20070;-64
2021/12/27 01:02:20;;;;;;;52.20;21.25;;;-3.90;88.10;;;;;;4971859;28;20031;-64
2021/12/27 01:04:45;;;;;;;52.72;21.67;;;-3.90;88.20;;;;;;4975722;28;20023;-65
2021/12/27 01:07:11;;;;;;;44.67;21.45;;;-3.90;88.20;;;;;;4972453;28;20390;-64
2021/12/27 01:10:02;;;;;;;43.83;22.35;;;-3.90;88.30;;;;;;4965346;28;20487;-64
2021/12/27 01:12:47;;;;;;;47.60;20.52;;;-4.00;88.10;;;;;;4964777;28;20103;-64
2021/12/27 01:17:45;;;;;;;46.67;22.05;;;-3.90;88.20;;;;;;4971815;28;20437;-63
2021/12/27 01:20:14;;;;;;;46.35;20.85;;;-4.00;88.20;;;;;;4975281;28;20357;-64
2021/12/27 01:22:40;;;;;;;55.22;22.10;;;-3.90;88.30;;;;;;4973882;28;20035;-64
2021/12/27 01:25:07;;;;;;;50.42;23.30;;;-3.90;88.40;;;;;;4974401;28;20027;-64
2021/12/27 01:27:34;;;;;;;48.38;21.52;;;-3.90;88.40;;;;;;4973735;28;20414;-63
2021/12/27 01:29:59;;;;;;;52.72;23.42;;;-3.90;88.40;;;;;;4973844;28;20047;-63
2021/12/27 01:32:29;;;;;;;47.88;22.67;;;-3.90;88.40;;;;;;4971460;28;20030;-63
2021/12/27 01:34:55;;;;;;;53.65;24.77;;;-3.90;88.50;;;;;;4972326;28;20475;-63
2021/12/27 01:37:21;;;;;;;49.92;23.25;;;-3.90;88.50;;;;;;4973263;28;20486;-63
2021/12/27 01:39:47;;;;;;;48.78;25.10;;;-3.90;88.30;;;;;;4974179;28;20019;-63
2021/12/27 01:42:12;;;;;;;51.83;23.63;;;-3.90;88.40;;;;;;4970912;28;20030;-63
2021/12/27 01:44:39;;;;;;;51.33;23.70;;;-3.90;88.50;;;;;;4973217;28;20065;-63
2021/12/27 01:47:06;;;;;;;58.17;24.17;;;-4.00;88.30;;;;;;4972143;28;20113;-63
2021/12/27 01:49:32;;;;;;;49.80;24.30;;;-3.90;88.40;;;;;;4974540;28;20035;-63
2021/12/27 01:51:57;;;;;;;55.00;25.50;;;-4.00;88.40;;;;;;4971753;28;20049;-63
2021/12/27 01:54:23;;;;;;;46.70;23.17;;;-4.00;88.40;;;;;;4955454;28;20028;-63
2021/12/27 01:56:51;;;;;;;53.22;23.95;;;-4.00;88.30;;;;;;4963851;28;20045;-63
2021/12/27 01:59:17;;;;;;;50.78;25.67;;;-4.00;88.40;;;;;;4971898;28;20479;-63
2021/12/27 02:01:43;;;;;;;55.72;24.77;;;-4.00;88.50;;;;;;4971795;28;20054;-63
2021/12/27 02:04:08;;;;;;;47.25;22.48;;;-3.90;88.50;;;;;;4972281;28;20191;-63
2021/12/27 02:06:34;;;;;;;49.25;24.17;;;-3.90;88.50;;;;;;4972591;28;20031;-63
2021/12/27 02:08:59;;;;;;;54.58;22.48;;;-3.90;88.40;;;;;;4973257;28;20035;-63
2021/12/27 02:11:26;;;;;;;58.28;25.48;;;-3.90;88.40;;;;;;4972740;28;20038;-63
2021/12/27 02:13:52;;;;;;;45.17;22.63;;;-3.90;88.40;;;;;;4972780;28;20101;-64
2021/12/27 02:16:20;;;;;;;57.25;26.83;;;-3.90;88.40;;;;;;4973563;28;20029;-63
2021/12/27 02:18:47;;;;;;;52.35;25.25;;;-3.90;88.50;;;;;;4961295;28;20027;-64
2021/12/27 02:21:14;;;;;;;51.78;24.58;;;-3.90;88.40;;;;;;4972685;28;20182;-64
2021/12/27 02:23:42;;;;;;;55.25;23.95;;;-3.80;88.40;;;;;;4961445;28;20402;-64
2021/12/27 02:26:09;;;;;;;57.58;26.23;;;-3.80;88.50;;;;;;4973458;28;20030;-64
2021/12/27 02:28:35;;;;;;;52.22;22.30;;;-3.80;88.40;;;;;;4969611;28;20486;-64
2021/12/27 02:31:00;;;;;;;53.28;26.73;;;-3.80;88.30;;;;;;4972661;28;20031;-65
2021/12/27 02:33:26;;;;;;;52.85;24.13;;;-3.80;88.20;;;;;;4972522;28;20117;-64
2021/12/27 02:35:55;;;;;;;42.50;20.63;;;-3.80;88.20;;;;;;4969847;28;20033;-64
2021/12/27 02:38:45;;;;;;;52.28;23.80;;;-3.80;88.30;;;;;;4972953;28;20671;-63
2021/12/27 02:41:11;;;;;;;49.65;24.60;;;-3.80;88.40;;;;;;4959410;28;20486;-63
2021/12/27 02:43:39;;;;;;;50.47;23.77;;;-3.80;88.40;;;;;;4972439;28;20398;-63
2021/12/27 02:46:10;;;;;;;53.97;25.23;;;-3.70;88.40;;;;;;4972848;28;20034;-63
2021/12/27 02:48:46;;;;;;;47.50;22.00;;;-3.70;88.40;;;;;;4971786;28;20121;-64
2021/12/27 02:51:13;;;;;;;48.80;23.83;;;-3.70;88.40;;;;;;4970943;28;20113;-64
2021/12/27 02:53:38;;;;;;;51.72;24.95;;;-3.70;88.40;;;;;;4987100;28;20658;-64
2021/12/27 02:56:06;;;;;;;49.95;23.50;;;-3.60;88.40;;;;;;4972417;28;20057;-64
2021/12/27 02:58:32;;;;;;;53.22;24.63;;;-3.60;88.40;;;;;;4970881;28;20522;-64
2021/12/27 03:01:06;;;;;;;55.65;24.63;;;-3.50;88.50;;;;;;4972764;28;20039;-65
2021/12/27 03:03:33;;;;;;;52.90;24.48;;;-3.50;88.50;;;;;;4968137;28;20443;-64
2021/12/27 03:05:59;;;;;;;52.50;23.33;;;-3.40;88.60;;;;;;4971187;28;20031;-64
2021/12/27 03:08:26;;;;;;;58.95;26.98;;;-3.40;88.70;;;;;;4969173;28;20178;-64
2021/12/27 03:10:54;;;;;;;57.67;24.60;;;-3.40;88.20;;;;;;4970729;28;20030;-64
2021/12/27 03:13:24;;;;;;;55.53;24.88;;;-3.30;88.20;;;;;;4972088;28;20489;-64
2021/12/27 03:15:52;;;;;;;52.25;25.30;;;-3.40;88.20;;;;;;4954998;28;20035;-64
2021/12/27 03:18:18;;;;;;;55.63;24.20;;;-3.30;88.20;;;;;;4968562;28;20505;-64
2021/12/27 03:20:44;;;;;;;52.00;22.88;;;-3.30;88.20;;;;;;4972466;28;20023;-64
2021/12/27 03:23:09;;;;;;;59.42;27.27;;;-3.30;88.20;;;;;;4971031;28;20031;-64
2021/12/27 03:25:35;;;;;;;52.42;21.88;;;-3.20;88.20;;;;;;4972671;28;20031;-63
2021/12/27 03:28:00;;;;;;;57.38;24.10;;;-3.20;88.10;;;;;;4971416;28;20486;-64
2021/12/27 03:30:27;;;;;;;55.97;24.60;;;-3.20;88.00;;;;;;4960051;28;20022;-63
2021/12/27 03:32:54;;;;;;;57.15;24.42;;;-3.20;88.00;;;;;;4971200;28;20018;-64
2021/12/27 03:35:34;;;;;;;53.35;24.00;;;-3.20;88.00;;;;;;4972770;28;20034;-64
2021/12/27 03:38:00;;;;;;;53.92;26.55;;;-3.20;87.90;;;;;;4970354;28;20477;-64
2021/12/27 03:40:27;;;;;;;54.55;24.13;;;-3.10;87.70;;;;;;4971927;28;20046;-64
2021/12/27 03:42:54;;;;;;;52.10;25.20;;;-3.10;87.70;;;;;;4970889;28;20027;-64
2021/12/27 03:45:32;;;;;;;54.55;25.35;;;-3.10;87.50;;;;;;4971131;28;20391;-64
2021/12/27 03:47:57;;;;;;;58.58;26.23;;;-3.10;87.50;;;;;;4970615;28;20063;-64
2021/12/27 03:50:25;;;;;;;54.28;24.73;;;-3.20;87.30;;;;;;4971838;28;20046;-64
2021/12/27 03:52:51;;;;;;;59.55;25.27;;;-3.10;87.60;;;;;;4969844;28;20035;-64
2021/12/27 03:55:17;;;;;;;53.25;24.45;;;-3.20;87.50;;;;;;4971733;28;20479;-64
2021/12/27 03:57:51;;;;;;;52.08;25.00;;;-3.20;87.50;;;;;;4970631;28;20018;-64
2021/12/27 04:02:46;;;;;;;57.30;26.35;;;-3.10;87.60;;;;;;4969929;28;20034;-63
2021/12/27 04:05:12;;;;;;;57.25;25.88;;;-3.10;87.50;;;;;;4972068;28;20077;-63
2021/12/27 04:07:39;;;;;;;49.80;24.13;;;-3.20;87.30;;;;;;4964740;28;20023;-64
2021/12/27 04:10:08;;;;;;;58.35;25.00;;;-3.20;87.20;;;;;;4968911;28;20126;-63
2021/12/27 04:12:34;;;;;;;54.53;26.02;;;-3.20;87.20;;;;;;4965060;28;20034;-64
2021/12/27 04:15:00;;;;;;;55.28;25.70;;;-3.20;87.10;;;;;;4966907;28;20122;-64
2021/12/27 04:17:25;;;;;;;51.78;24.38;;;-3.10;87.30;;;;;;4971027;28;20123;-64
2021/12/27 04:19:51;;;;;;;57.58;26.80;;;-3.20;87.10;;;;;;4971331;28;20031;-64
2021/12/27 04:22:16;;;;;;;55.45;26.30;;;-3.20;87.10;;;;;;4968554;28;20074;-64
2021/12/27 04:24:42;;;;;;;47.97;22.98;;;-3.20;87.20;;;;;;4958121;28;20027;-64
2021/12/27 04:27:07;;;;;;;62.45;24.48;;;-3.10;87.30;;;;;;4974435;28;20482;-64
2021/12/27 04:29:33;;;;;;;59.22;24.10;;;-3.10;87.40;;;;;;4974570;28;20046;-64
2021/12/27 04:31:58;;;;;;;53.53;24.63;;;-3.10;87.30;;;;;;4974394;28;20530;-63
2021/12/27 04:34:24;;;;;;;52.97;26.20;;;-3.10;87.10;;;;;;4963229;28;20027;-64
2021/12/27 04:36:49;;;;;;;48.13;22.48;;;-3.10;86.90;;;;;;4956217;28;20046;-63
2021/12/27 04:39:15;;;;;;;49.08;24.42;;;-3.10;87.30;;;;;;4974244;28;20529;-63
2021/12/27 04:41:42;;;;;;;52.22;25.25;;;-3.00;87.40;;;;;;4973716;28;20069;-64
2021/12/27 04:44:07;;;;;;;54.53;25.73;;;-3.00;87.40;;;;;;4975115;28;20097;-64
2021/12/27 04:46:33;;;;;;;54.13;24.60;;;-2.90;87.50;;;;;;4973259;28;20035;-64
2021/12/27 04:48:59;;;;;;;55.63;25.65;;;-2.80;87.60;;;;;;4974258;28;20043;-64
2021/12/27 04:51:24;;;;;;;50.10;24.67;;;-2.80;87.50;;;;;;4972185;28;20121;-63
2021/12/27 04:53:51;;;;;;;52.28;25.20;;;-2.80;87.20;;;;;;4958060;28;20399;-64
2021/12/27 04:56:17;;;;;;;50.38;23.13;;;-2.80;87.30;;;;;;4971456;28;20030;-63
2021/12/27 04:58:45;;;;;;;48.13;22.58;;;-2.80;87.20;;;;;;4966780;28;20027;-63
2021/12/27 05:01:11;;;;;;;54.78;26.08;;;-2.80;86.70;;;;;;4973341;28;20043;-63
2021/12/27 05:03:37;;;;;;;59.22;25.40;;;-2.80;87.00;;;;;;4971846;28;20022;-64
2021/12/27 05:06:02;;;;;;;54.72;26.23;;;-2.80;87.10;;;;;;4975280;28;20033;-63
2021/12/27 05:08:28;;;;;;;54.97;25.15;;;-2.80;87.10;;;;;;4969643;28;20035;-63
2021/12/27 05:10:53;;;;;;;52.08;22.77;;;-2.80;87.10;;;;;;4972102;28;20039;-65
2021/12/27 05:13:19;;;;;;;49.10;24.08;;;-2.70;87.20;;;;;;4974163;28;20371;-63
2021/12/27 05:15:45;;;;;;;48.17;23.40;;;-2.70;87.20;;;;;;4954857;28;20039;-63
2021/12/27 05:18:10;;;;;;;57.33;26.05;;;-2.70;86.90;;;;;;4962298;28;20039;-64
2021/12/27 05:20:36;;;;;;;48.92;24.08;;;-2.70;87.10;;;;;;4972132;28;20134;-63
2021/12/27 05:23:01;;;;;;;55.58;25.48;;;-2.60;87.30;;;;;;4973511;28;20034;-64
2021/12/27 05:25:27;;;;;;;55.65;24.60;;;-2.60;87.30;;;;;;4973044;28;20027;-64
2021/12/27 05:27:53;;;;;;;50.72;24.73;;;-2.50;87.20;;;;;;4972950;28;20204;-64
2021/12/27 05:30:19;;;;;;;49.08;24.92;;;-2.50;86.90;;;;;;4973913;28;20038;-64
2021/12/27 05:32:45;;;;;;;56.78;25.55;;;-2.50;86.80;;;;;;4971142;28;20133;-64
2021/12/27 05:35:11;;;;;;;56.40;25.65;;;-2.50;86.90;;;;;;4973306;28;20470;-65
2021/12/27 05:37:37;;;;;;;57.53;26.15;;;-2.40;86.90;;;;;;4961402;28;20031;-64
2021/12/27 05:40:07;;;;;;;51.25;24.52;;;-2.40;87.20;;;;;;4974438;28;20034;-64
2021/12/27 05:42:34;;;;;;;55.25;24.88;;;-2.40;86.70;;;;;;4967639;28;20035;-64
2021/12/27 05:45:00;;;;;;;56.15;24.25;;;-2.40;86.80;;;;;;4972120;28;20483;-64
2021/12/27 05:47:25;;;;;;;51.92;24.98;;;-2.40;86.80;;;;;;4960529;28;20034;-64
2021/12/27 05:49:51;;;;;;;55.97;25.83;;;-2.40;86.60;;;;;;4972462;28;20129;-64
2021/12/27 05:52:17;;;;;;;49.78;24.42;;;-2.40;86.70;;;;;;4973406;28;20027;-64
2021/12/27 05:54:42;;;;;;;61.47;25.83;;;-2.40;86.80;;;;;;4972578;28;20034;-65
2021/12/27 05:57:08;;;;;;;59.15;26.48;;;-2.30;86.80;;;;;;4970307;28;20021;-64
2021/12/27 05:59:33;;;;;;;50.45;22.60;;;-2.30;86.70;;;;;;4973115;28;20105;-64
2021/12/27 06:01:59;;;;;;;59.92;25.83;;;-2.20;86.90;;;;;;4966384;28;20051;-65
2021/12/27 06:04:24;;;;;;;63.80;26.88;;;-2.20;86.50;;;;;;4974155;28;20031;-64
2021/12/27 06:06:50;;;;;;;58.97;26.30;;;-2.20;86.70;;;;;;4972568;28;20050;-64
2021/12/27 06:09:15;;;;;;;54.03;24.90;;;-2.10;86.80;;;;;;4973258;28;20126;-64
2021/12/27 06:11:41;;;;;;;60.28;26.33;;;-2.10;86.80;;;;;;4972489;28;20033;-64
2021/12/27 06:14:06;;;;;;;51.15;25.73;;;-2.00;86.90;;;;;;4971967;28;20027;-64
2021/12/27 06:16:32;;;;;;;62.70;26.25;;;-2.00;86.70;;;;;;4971397;28;20019;-64
2021/12/27 06:18:57;;;;;;;55.90;27.02;;;-2.10;86.60;;;;;;4960953;28;20027;-64
2021/12/27 06:21:23;;;;;;;61.47;27.27;;;-2.10;86.60;;;;;;4969627;28;20035;-64
2021/12/27 06:23:49;;;;;;;50.53;25.50;;;-2.00;86.60;;;;;;4971418;28;20041;-64
2021/12/27 06:26:14;;;;;;;51.58;24.30;;;-2.00;86.50;;;;;;4973692;28;20031;-63
2021/12/27 06:28:41;;;;;;;51.70;25.65;;;-2.00;86.60;;;;;;4970839;28;20030;-63
2021/12/27 06:31:06;;;;;;;57.38;26.50;;;-1.90;86.60;;;;;;4972398;28;20031;-63
2021/12/27 06:33:32;;;;;;;65.80;27.67;;;-1.90;86.40;;;;;;4972482;28;20040;-64
2021/12/27 06:35:58;;;;;;;60.80;28.63;;;-1.90;86.60;;;;;;4971848;28;20073;-64
2021/12/27 06:38:23;;;;;;;61.30;27.45;;;-1.90;86.20;;;;;;4966848;28;20058;-63
2021/12/27 06:40:49;;;;;;;58.95;27.23;;;-1.90;86.30;;;;;;4968537;28;20038;-64
2021/12/27 06:43:15;;;;;;;57.65;25.25;;;-1.90;86.30;;;;;;4964882;28;21392;-64
2021/12/27 06:45:41;;;;;;;58.08;26.13;;;-1.80;86.50;;;;;;4970429;28;20090;-64
2021/12/27 06:48:06;;;;;;;58.67;27.55;;;-1.80;86.30;;;;;;4970208;28;20444;-63
2021/12/27 06:50:32;;;;;;;58.10;26.48;;;-1.80;86.40;;;;;;4972948;28;20027;-63
2021/12/27 06:52:57;;;;;;;58.42;28.60;;;-1.90;86.10;;;;;;4970831;28;20055;-63
2021/12/27 06:55:23;;;;;;;55.58;27.90;;;-1.80;86.20;;;;;;4973243;28;20081;-64
2021/12/27 06:57:49;;;;;;;55.45;25.70;;;-1.80;86.00;;;;;;4968822;28;20054;-64
2021/12/27 07:00:15;;;;;;;50.67;24.63;;;-1.80;86.40;;;;;;4972678;28;20113;-64
2021/12/27 07:02:43;;;;;;;52.53;26.45;;;-1.80;86.50;;;;;;4969856;28;20173;-63
2021/12/27 07:05:09;;;;;;;56.92;24.65;;;-1.70;86.40;;;;;;4972636;28;20039;-64
2021/12/27 07:07:34;;;;;;;54.03;24.77;;;-1.80;86.30;;;;;;4970227;28;20031;-64
2021/12/27 07:10:00;;;;;;;55.63;26.17;;;-1.70;86.40;;;;;;4972350;28;20492;-63
2021/12/27 07:12:26;;;;;;;49.90;25.08;;;-1.70;86.60;;;;;;4967452;28;20045;-63
2021/12/27 07:14:53;;;;;;;58.17;25.92;;;-1.70;86.60;;;;;;4972347;28;20034;-63
2021/12/27 07:17:19;;;;;;;55.30;25.77;;;-1.60;86.70;;;;;;4969873;28;20474;-63
2021/12/27 07:19:44;;;;;;;50.63;27.45;;;-1.60;86.50;;;;;;4970860;28;20031;-63
2021/12/27 07:22:10;;;;;;;56.47;26.92;;;-1.60;86.70;;;;;;4970328;28;20029;-63
2021/12/27 07:24:35;;;;;;;59.88;27.83;;;-1.60;86.90;;;;;;4963023;28;20090;-63
2021/12/27 07:27:01;;;;;;;56.60;26.13;;;-1.60;86.80;;;;;;4955241;28;20039;-63
2021/12/27 07:29:26;;;;;;;57.00;27.35;;;-1.60;87.00;;;;;;4970598;28;20065;-65
2021/12/27 07:31:52;;;;;;;58.20;26.00;;;-1.50;87.10;;;;;;4955930;28;20395;-65
2021/12/27 07:34:19;;;;;;;57.88;25.75;;;-1.50;87.20;;;;;;4964118;28;20042;-65
2021/12/27 07:36:46;;;;;;;57.38;27.45;;;-1.50;87.30;;;;;;4969303;28;20035;-64
2021/12/27 07:39:12;;;;;;;56.45;25.48;;;-1.50;87.40;;;;;;4971951;28;20417;-64
2021/12/27 07:41:37;;;;;;;54.30;25.73;;;-1.40;87.50;;;;;;4972437;28;20064;-62
2021/12/27 07:44:03;;;;;;;56.75;26.73;;;-1.40;87.60;;;;;;4953547;28;20038;-65
2021/12/27 07:46:29;;;;;;;52.92;26.52;;;-1.40;87.60;;;;;;4958165;28;20038;-65
2021/12/27 07:48:54;;;;;;;58.75;25.80;;;-1.30;87.80;;;;;;4954444;28;20106;-64
2021/12/27 07:51:20;;;;;;;54.80;26.30;;;-1.40;88.00;;;;;;4968466;28;20030;-64
2021/12/27 07:53:45;;;;;;;60.65;26.58;;;-1.30;88.10;;;;;;4970150;28;20038;-66
2021/12/27 07:56:13;;;;;;;48.17;24.02;;;-1.30;88.10;;;;;;4969271;28;20031;-66
2021/12/27 07:58:38;;;;;;;58.22;27.25;;;-1.30;88.10;;;;;;4971150;28;20031;-67
2021/12/27 08:01:04;;;;;;;56.28;28.27;;;-1.30;88.30;;;;;;4970591;28;20439;-66
2021/12/27 08:03:29;;;;;;;58.50;28.05;;;-1.20;88.40;;;;;;4970991;28;20062;-67
2021/12/27 08:05:55;;;;;;;56.25;27.10;;;-1.10;88.60;;;;;;4968132;28;20030;-67
2021/12/27 08:08:21;;;;;;;67.28;27.63;;;-1.10;88.50;;;;;;4958755;28;20094;-68
2021/12/27 08:10:46;;;;;;;53.42;26.58;;;-1.20;88.50;;;;;;4960997;28;20038;-68
2021/12/27 08:13:12;;;;;;;60.33;28.45;;;-1.20;88.60;;;;;;4967204;28;20042;-66
2021/12/27 08:15:38;;;;;;;54.40;26.02;;;-1.10;88.70;;;;;;4965897;28;20033;-66
2021/12/27 08:18:04;;;;;;;54.13;25.33;;;-1.10;88.80;;;;;;4968970;28;20018;-67
2021/12/27 08:20:30;;;;;;;58.90;27.27;;;-1.10;88.90;;;;;;4960872;28;20035;-67
2021/12/27 08:22:56;;;;;;;57.28;28.48;;;-1.10;88.70;;;;;;4962266;28;20662;-67
2021/12/27 08:25:21;;;;;;;56.42;27.60;;;-1.10;88.80;;;;;;4971888;28;20035;-66
2021/12/27 08:27:47;;;;;;;53.47;26.70;;;-1.10;88.80;;;;;;4970296;28;20071;-67
2021/12/27 08:30:13;;;;;;;51.40;26.15;;;-1.00;88.90;;;;;;4957534;28;20121;-67
2021/12/27 08:32:42;;;;;;;49.30;24.65;;;-1.00;88.80;;;;;;4964742;28;20366;-68
2021/12/27 08:35:09;;;;;;;57.78;28.17;;;-1.00;88.80;;;;;;4956561;28;20114;-67
2021/12/27 08:37:35;;;;;;;55.08;24.63;;;-1.00;88.80;;;;;;4959668;28;20045;-67
2021/12/27 08:40:01;;;;;;;55.45;26.10;;;-0.90;88.80;;;;;;4971039;28;20350;-67
2021/12/27 08:42:27;;;;;;;60.13;26.30;;;-0.90;88.80;;;;;;4962952;28;20093;-67
2021/12/27 08:44:53;;;;;;;55.67;25.90;;;-0.90;88.90;;;;;;4967906;28;20359;-67
2021/12/27 08:47:19;;;;;;;55.97;27.48;;;-0.80;89.00;;;;;;4961363;28;20066;-67
2021/12/27 08:49:45;;;;;;;53.17;28.15;;;-0.80;89.10;;;;;;4963757;28;20486;-68
2021/12/27 08:52:11;;;;;;;61.80;28.02;;;-0.80;89.10;;;;;;4969466;28;20038;-68
2021/12/27 08:54:36;;;;;;;61.00;27.05;;;-0.80;89.10;;;;;;4966586;28;20114;-66
2021/12/27 08:57:04;;;;;;;60.60;26.73;;;-0.80;89.10;;;;;;4960566;28;20041;-67
2021/12/27 08:59:29;;;;;;;61.28;28.67;;;-0.70;89.20;;;;;;4970258;28;20037;-67
2021/12/27 09:01:55;;;;;;;55.35;25.90;;;-0.70;89.10;;;;;;4969031;28;20050;-67
2021/12/27 09:04:23;;;;;;;58.55;25.83;;;-0.60;89.10;;;;;;4967412;28;20062;-67
2021/12/27 09:06:49;;;;;;;50.22;25.77;;;-0.60;89.10;;;;;;4969556;28;20046;-66
2021/12/27 09:09:15;;;;;;;51.03;25.55;;;-0.50;89.40;;;;;;4970078;28;20125;-67
2021/12/27 09:11:41;;;;;;;50.65;24.20;;;-0.50;89.40;;;;;;4969249;28;20042;-66
2021/12/27 09:14:07;;;;;;;58.17;27.65;;;-0.50;89.30;;;;;;4973515;28;20038;-66
2021/12/27 09:16:32;;;;;;;53.15;23.83;;;-0.40;89.40;;;;;;4972663;28;20031;-66
2021/12/27 09:18:58;;;;;;;47.17;25.50;;;-0.40;89.30;;;;;;4969988;28;20037;-67
2021/12/27 09:21:24;;;;;;;47.95;24.55;;;-0.30;89.40;;;;;;4967922;28;20027;-67
2021/12/27 09:23:50;;;;;;;46.22;22.80;;;-0.30;89.40;;;;;;4961371;28;20035;-66
2021/12/27 09:26:16;;;;;;;50.38;25.15;;;-0.20;89.40;;;;;;4968979;28;20046;-66
2021/12/27 09:28:41;;;;;;;50.45;24.92;;;-0.20;89.30;;;;;;4966375;28;20027;-66
2021/12/27 09:31:07;;;;;;;51.42;24.42;;;-0.20;89.30;;;;;;4962479;28;20035;-66
2021/12/27 09:33:32;;;;;;;48.97;23.30;;;-0.20;89.40;;;;;;4965348;28;20027;-65
2021/12/27 09:35:58;;;;;;;53.88;25.80;;;-0.20;89.60;;;;;;4969889;28;20027;-66
2021/12/27 09:38:23;;;;;;;50.67;24.40;;;-0.10;89.60;;;;;;4964991;28;20031;-66
2021/12/27 09:40:49;;;;;;;51.42;24.20;;;-0.10;89.50;;;;;;4965890;28;20034;-66
2021/12/27 09:43:15;;;;;;;47.53;22.67;;;0.00;89.40;;;;;;4971603;28;20026;-67
2021/12/27 09:45:40;;;;;;;49.38;24.40;;;0.00;89.50;;;;;;4963899;28;20371;-66
2021/12/27 09:48:06;;;;;;;56.78;26.42;;;0.00;89.50;;;;;;4966300;28;20426;-66
2021/12/27 09:50:36;;;;;;;55.05;28.33;;;0.10;89.50;;;;;;4967854;28;20061;-64
2021/12/27 09:53:02;;;;;;;46.63;23.90;;;0.10;89.40;;;;;;4967142;28;20049;-66
2021/12/27 09:55:27;;;;;;;50.55;26.13;;;0.10;89.40;;;;;;4955529;28;20490;-66
2021/12/27 09:57:54;;;;;;;49.92;24.58;;;0.00;89.20;;;;;;4968939;28;20035;-66
2021/12/27 10:00:19;;;;;;;50.13;26.23;;;0.00;89.30;;;;;;4971596;28;20051;-67
2021/12/27 10:02:52;;;;;;;48.08;23.58;;;0.00;89.50;;;;;;4971258;28;20074;-66
2021/12/27 10:05:20;;;;;;;47.20;25.35;;;0.10;89.60;;;;;;4957037;28;20122;-66
2021/12/27 10:07:46;;;;;;;50.72;24.30;;;0.10;89.50;;;;;;4965348;28;20041;-66
2021/12/27 10:10:12;;;;;;;48.00;24.73;;;0.10;89.50;;;;;;4971336;28;20031;-66
2021/12/27 10:12:38;;;;;;;51.00;24.10;;;0.10;89.50;;;;;;4972748;28;20549;-66
2021/12/27 10:15:08;;;;;;;47.33;23.33;;;0.20;89.60;;;;;;4972054;28;20382;-66
2021/12/27 10:17:37;;;;;;;50.88;24.80;;;0.20;89.50;;;;;;4973796;28;20019;-66
2021/12/27 10:20:10;;;;;;;50.28;23.90;;;0.20;89.60;;;;;;4973124;28;20047;-66
2021/12/27 10:22:41;;;;;;;50.50;26.10;;;0.20;89.50;;;;;;4970853;28;20086;-66
2021/12/27 10:25:24;;;;;;;43.33;23.88;;;0.30;89.60;;;;;;4973208;28;20081;-66
2021/12/27 10:27:53;;;;;;;49.97;23.02;;;0.30;89.70;;;;;;4971155;28;20045;-66
2021/12/27 10:30:20;;;;;;;51.38;24.52;;;0.30;89.70;;;;;;4956734;28;20043;-66
2021/12/27 10:33:05;;;;;;;48.70;24.45;;;0.30;89.70;;;;;;4962377;28;20078;-66
2021/12/27 10:35:40;;;;;;;49.70;23.80;;;0.30;89.90;;;;;;4970503;28;20035;-66
2021/12/27 10:38:20;;;;;;;;;;;0.30;90.00;;;;;;4960988;28;20118;-66
2021/12/27 10:40:52;;;;;;;50.30;24.08;;;0.40;90.10;;;;;;4972503;28;20001;-66
2021/12/27 10:43:38;;;;;;;50.95;25.60;;;0.50;90.00;;;;;;4960674;28;20054;-66
2021/12/27 10:46:06;;;;;;;47.92;24.35;;;0.60;90.10;;;;;;4964079;28;20085;-66
2021/12/27 10:48:35;;;;;;;52.10;24.00;;;0.70;90.10;;;;;;4965223;28;20778;-66
2021/12/27 10:51:01;;;;;;;46.10;22.88;;;0.70;90.00;;;;;;4972116;28;20042;-66
2021/12/27 10:53:26;;;;;;;50.53;24.85;;;0.70;89.90;;;;;;4967798;28;20889;-66
2021/12/27 10:55:53;;;;;;;51.88;25.40;;;0.80;90.00;;;;;;4972312;28;20101;-66
2021/12/27 10:58:27;;;;;;;47.42;25.38;;;0.80;89.90;;;;;;4968777;28;20026;-66
2021/12/27 11:00:58;;;;;;;50.67;24.08;;;0.70;89.70;;;;;;4971690;28;20059;-66
2021/12/27 11:03:36;;;;;;;51.45;25.20;;;0.80;89.70;;;;;;4969233;28;20100;-66
2021/12/27 11:06:04;;;;;;;48.92;26.40;;;0.80;89.70;;;;;;4969020;28;20031;-66
2021/12/27 11:08:32;;;;;;;52.95;27.77;;;0.80;89.60;;;;;;4966125;28;20103;-66
2021/12/27 11:10:58;;;;;;;45.65;25.02;;;0.80;89.60;;;;;;4971151;28;20035;-66
2021/12/27 11:13:24;;;;;;;49.28;22.42;;;0.80;89.70;;;;;;4967026;28;20143;-67
2021/12/27 11:15:50;;;;;;;47.72;24.23;;;0.80;89.70;;;;;;4953033;28;20043;-66
2021/12/27 11:18:16;;;;;;;46.90;25.27;;;0.90;89.90;;;;;;4970307;28;20026;-65
2021/12/27 11:20:48;;;;;;;45.55;23.80;;;0.90;90.00;;;;;;4966221;28;20035;-66
2021/12/27 11:23:15;;;;;;;44.35;23.48;;;1.00;90.00;;;;;;4970178;28;20030;-66
2021/12/27 11:25:43;;;;;;;43.22;21.35;;;1.00;90.00;;;;;;4970680;28;20042;-65
2021/12/27 11:28:31;;;;;;;48.35;24.75;;;1.10;90.00;;;;;;4965420;28;20066;-66
2021/12/27 11:30:59;;;;;;;50.47;25.35;;;1.10;89.90;;;;;;4971096;28;20521;-66
2021/12/27 11:33:25;;;;;;;48.22;24.73;;;1.10;89.90;;;;;;4972527;28;20089;-65
2021/12/27 11:35:57;;;;;;;47.88;22.73;;;1.20;89.90;;;;;;4967011;28;20034;-66
2021/12/27 11:38:43;;;;;;;45.22;23.23;;;1.20;90.00;;;;;;4971985;28;20106;-66
2021/12/27 11:41:26;;;;;;;44.13;22.95;;;1.30;89.90;;;;;;4970315;28;20199;-67
2021/12/27 11:44:08;;;;;;;47.67;23.73;;;1.40;89.90;;;;;;4971482;28;20074;-67
2021/12/27 11:46:55;;;;;;;46.78;23.52;;;1.40;89.80;;;;;;4972136;28;20390;-67
2021/12/27 11:49:42;;;;;;;42.55;22.98;;;1.40;89.90;;;;;;4972067;28;20082;-67
2021/12/27 11:52:16;;;;;;;46.10;23.25;;;1.40;89.80;;;;;;4971625;28;20031;-67
2021/12/27 11:55:14;;;;;;;47.28;22.88;;;1.50;89.80;;;;;;4971406;28;20039;-67
2021/12/27 11:57:48;;;;;;;48.83;22.65;;;1.50;89.90;;;;;;4971280;28;20035;-67
2021/12/27 12:00:17;;;;;;;46.55;22.20;;;1.60;89.90;;;;;;4971576;28;20170;-67
2021/12/27 12:02:44;;;;;;;49.28;25.55;;;1.70;89.80;;;;;;4972569;28;20085;-67
2021/12/27 12:05:10;;;;;;;54.15;23.80;;;1.70;89.70;;;;;;4971969;28;20022;-67
2021/12/27 12:07:35;;;;;;;46.88;22.50;;;1.70;89.60;;;;;;4970722;28;20410;-67
2021/12/27 12:10:13;;;;;;;40.80;21.52;;;1.80;89.70;;;;;;4969535;28;20519;-66
2021/12/27 12:12:38;;;;;;;43.05;21.75;;;1.80;89.50;;;;;;4970965;28;20478;-66
2021/12/27 12:15:05;;;;;;;44.25;21.95;;;1.80;89.60;;;;;;4970696;28;20026;-66
2021/12/27 12:17:57;;;;;;;42.08;22.10;;;1.80;89.70;;;;;;4972058;28;20031;-66
2021/12/27 12:20:36;;;;;;;46.28;22.98;;;1.90;89.70;;;;;;4968542;28;20030;-66
2021/12/27 12:23:10;;;;;;;41.22;21.73;;;1.90;89.60;;;;;;4972049;28;20027;-67
2021/12/27 12:25:37;;;;;;;48.20;23.05;;;1.90;89.50;;;;;;4971128;28;20030;-67
2021/12/27 12:28:15;;;;;;;52.75;27.38;;;1.90;89.30;;;;;;4970353;28;20034;-66
2021/12/27 12:30:49;;;;;;;49.55;23.50;;;2.00;89.50;;;;;;4971947;28;20046;-66
2021/12/27 12:33:20;;;;;;;41.78;23.35;;;2.00;89.40;;;;;;4971865;28;20034;-66
2021/12/27 12:35:50;;;;;;;45.10;22.38;;;2.00;89.30;;;;;;4972472;28;20039;-65
2021/12/27 12:38:18;;;;;;;44.42;21.88;;;2.00;89.20;;;;;;4970163;28;20043;-65